createdAt,value
2019-05-14T00:04:42.248Z,2.65
2019-05-14T00:09:45.601Z,2.98
2019-05-14T00:14:48.582Z,3.20
2019-05-14T00:20:05.865Z,2.17
2019-05-14T00:24:56.641Z,2.65
2019-05-14T00:30:02.263Z,2.20
2019-05-14T00:35:05.568Z,2.42
2019-05-14T00:40:08.756Z,2.47
2019-05-14T00:45:12.020Z,2.37
2019-05-14T00:50:15.198Z,2.08
2019-05-14T00:55:18.164Z,2.62
2019-05-14T01:00:22.011Z,2.17
2019-05-14T01:05:25.237Z,1.85
2019-05-14T01:10:31.306Z,1.85
2019-05-14T01:15:34.639Z,2.55
2019-05-14T01:20:37.605Z,2.40
2019-05-14T01:25:42.201Z,2.60
2019-05-14T01:30:45.482Z,2.08
2019-05-14T01:35:48.421Z,2.45
2019-05-14T01:40:52.365Z,2.85
2019-05-14T01:45:55.989Z,2.55
2019-05-14T01:51:01.310Z,2.60
2019-05-14T01:56:05.407Z,2.30
2019-05-14T02:01:08.477Z,2.25
2019-05-14T02:06:11.920Z,2.27
2019-05-14T02:11:15.080Z,2.33
2019-05-14T02:16:18.068Z,2.65
2019-05-14T02:21:22.861Z,2.60
2019-05-14T02:26:25.978Z,2.87
2019-05-14T02:31:29.288Z,2.50
2019-05-14T02:36:32.488Z,2.50
2019-05-14T02:41:38.946Z,2.60
2019-05-14T02:46:40.810Z,2.87
2019-05-14T02:51:44.019Z,2.80
2019-05-14T02:56:49.557Z,3.08
2019-05-14T03:01:51.874Z,3.15
2019-05-14T03:06:54.804Z,3.30
2019-05-14T03:11:59.514Z,3.35
2019-05-14T03:17:02.893Z,2.70
2019-05-14T03:22:09.747Z,3.42
2019-05-14T03:27:10.852Z,3.70
2019-05-14T03:32:14.176Z,3.40
2019-05-14T03:37:23.544Z,3.85
2019-05-14T03:42:24.726Z,3.20
2019-05-14T03:47:29.803Z,3.80
2019-05-14T03:52:32.891Z,3.20
2019-05-14T03:57:35.936Z,3.37
2019-05-14T04:02:39.258Z,3.00
2019-05-14T04:07:45.753Z,2.83
2019-05-14T04:12:51.545Z,2.97
2019-05-14T04:17:55.620Z,2.77
2019-05-14T04:23:02.077Z,2.87
2019-05-14T04:28:11.575Z,2.75
2019-05-14T04:33:22.285Z,2.77
2019-05-14T04:38:25.323Z,3.42
2019-05-14T04:43:29.387Z,3.35
2019-05-14T04:48:37.616Z,3.50
2019-05-14T04:53:41.443Z,3.45
2019-05-14T04:58:44.587Z,3.25
2019-05-14T05:03:50.285Z,2.98
2019-05-14T05:08:52.542Z,2.72
2019-05-14T05:13:55.594Z,2.35
2019-05-14T05:18:59.436Z,2.80
2019-05-14T05:24:02.839Z,2.50
2019-05-14T05:29:07.181Z,2.90
2019-05-14T05:34:10.722Z,3.20
2019-05-14T05:39:13.753Z,2.70
2019-05-14T05:44:18.745Z,3.72
2019-05-14T05:49:21.781Z,3.52
2019-05-14T05:54:24.739Z,3.10
2019-05-14T05:59:29.357Z,3.87
2019-05-14T06:04:32.678Z,3.62
2019-05-14T06:09:37.945Z,3.92
2019-05-14T06:14:40.598Z,4.77
2019-05-14T06:19:43.637Z,4.15
2019-05-14T06:24:48.614Z,3.83
2019-05-14T06:29:55.062Z,3.15
2019-05-14T06:34:59.554Z,2.97
2019-05-14T06:40:03.235Z,3.05
2019-05-14T06:45:10.493Z,3.17
2019-05-14T06:50:13.512Z,2.90
2019-05-14T06:55:18.035Z,2.98
2019-05-14T07:00:22.154Z,2.37
2019-05-14T07:05:25.215Z,2.10
2019-05-14T07:10:28.816Z,1.30
2019-05-14T07:15:32.024Z,1.10
2019-05-14T07:20:35.107Z,1.40
2019-05-14T07:25:39.298Z,1.50
2019-05-14T07:30:42.508Z,1.15
2019-05-14T07:35:45.590Z,1.10
2019-05-14T07:40:49.403Z,0.93
2019-05-14T07:45:52.729Z,1.00
2019-05-14T07:50:55.732Z,0.95
2019-05-14T07:55:59.241Z,1.10
2019-05-14T08:01:02.645Z,1.52
2019-05-14T08:06:08.080Z,1.00
2019-05-14T08:11:10.538Z,0.93
2019-05-14T08:16:13.553Z,1.20
2019-05-14T08:21:19.049Z,1.20
2019-05-14T08:26:21.527Z,0.90
2019-05-14T08:31:24.664Z,1.30
2019-05-14T08:36:28.628Z,1.02
2019-05-14T08:41:38.430Z,0.62
2019-05-14T08:46:44.690Z,1.10
2019-05-14T08:51:49.201Z,0.90
2019-05-14T08:56:51.500Z,1.00
2019-05-14T09:02:02.334Z,1.17
2019-05-14T09:07:00.222Z,1.05
2019-05-14T09:12:03.318Z,1.62
2019-05-14T09:17:06.341Z,1.42
2019-05-14T09:22:09.715Z,1.02
2019-05-14T09:27:13.408Z,1.10
2019-05-14T09:32:19.035Z,0.82
2019-05-14T09:37:21.434Z,1.55
2019-05-14T09:42:24.400Z,1.15
2019-05-14T09:47:28.224Z,1.32
2019-05-14T09:52:31.526Z,1.30
2019-05-14T09:57:34.651Z,1.10
2019-05-14T10:02:39.227Z,1.32
2019-05-14T10:07:42.711Z,1.10
2019-05-14T10:12:54.151Z,1.83
2019-05-14T10:17:50.963Z,1.45
2019-05-14T10:22:53.942Z,1.22
2019-05-14T10:27:59.092Z,1.20
2019-05-14T10:33:09.029Z,1.25
2019-05-14T10:38:08.825Z,1.07
2019-05-14T10:43:14.302Z,1.50
2019-05-14T10:48:18.616Z,1.53
2019-05-14T10:53:22.198Z,1.03
2019-05-14T10:58:25.221Z,1.20
2019-05-14T11:03:30.161Z,1.60
2019-05-14T11:08:33.138Z,1.40
2019-05-14T11:13:36.168Z,1.40
2019-05-14T11:18:39.945Z,1.20
2019-05-14T11:23:43.282Z,1.27
2019-05-14T11:28:48.810Z,1.37
2019-05-14T11:33:51.302Z,1.70
2019-05-14T11:38:54.281Z,1.47
2019-05-14T11:43:59.362Z,1.00
2019-05-14T11:49:02.179Z,1.30
2019-05-14T11:54:05.191Z,1.25
2019-05-14T11:59:08.748Z,1.12
2019-05-14T12:04:11.829Z,1.62
2019-05-14T12:09:14.902Z,1.15
2019-05-14T12:14:19.138Z,1.32
2019-05-14T12:19:22.220Z,1.72
2019-05-14T12:24:25.242Z,1.50
2019-05-14T12:29:29.237Z,1.70
2019-05-14T12:34:32.489Z,1.67
2019-05-14T12:39:35.657Z,2.35
2019-05-14T12:44:40.852Z,1.60
2019-05-14T12:49:43.581Z,2.33
2019-05-14T12:54:46.600Z,1.62
2019-05-14T12:59:49.609Z,2.05
2019-05-14T13:04:52.639Z,1.77
2019-05-14T13:09:55.630Z,2.00
2019-05-14T13:14:58.654Z,2.33
2019-05-14T13:20:01.697Z,1.92
2019-05-14T13:25:09.768Z,2.47
2019-05-14T13:30:13.242Z,1.98
2019-05-14T13:35:19.380Z,2.47
2019-05-14T13:40:21.739Z,2.15
2019-05-14T13:45:25.835Z,1.87
2019-05-14T13:50:29.393Z,1.80
2019-05-14T13:55:34.770Z,2.47
2019-05-14T14:00:37.959Z,1.98
2019-05-14T14:05:40.968Z,1.60
2019-05-14T14:10:46.364Z,1.57
2019-05-14T14:15:49.192Z,1.50
2019-05-14T14:20:52.276Z,1.70
2019-05-14T14:25:56.172Z,1.42
2019-05-14T14:31:00.282Z,1.52
2019-05-14T14:36:03.307Z,1.42
2019-05-14T14:41:09.730Z,1.37
2019-05-14T14:46:14.215Z,1.20
2019-05-14T14:51:18.952Z,1.20
2019-05-14T14:56:20.985Z,1.37
2019-05-14T15:01:24.000Z,1.37
2019-05-14T15:06:30.359Z,1.32
2019-05-14T15:11:32.030Z,1.45
2019-05-14T15:16:35.016Z,1.17
2019-05-14T15:21:38.023Z,1.50
2019-05-14T15:26:41.135Z,1.70
2019-05-14T15:31:44.126Z,2.20
2019-05-14T15:36:49.271Z,1.52
2019-05-14T15:41:52.040Z,1.37
2019-05-14T15:46:55.061Z,1.50
2019-05-14T15:51:58.126Z,1.57
2019-05-14T15:57:01.196Z,1.42
2019-05-14T16:02:04.228Z,1.40
2019-05-14T16:07:09.523Z,1.80
2019-05-14T16:12:12.430Z,2.00
2019-05-14T16:17:15.798Z,1.52
2019-05-14T16:22:19.589Z,1.52
2019-05-14T16:27:22.676Z,2.10
2019-05-14T16:32:25.665Z,1.62
2019-05-14T16:37:28.790Z,1.70
2019-05-14T16:42:31.814Z,2.25
2019-05-14T16:47:34.883Z,2.20
2019-05-14T16:52:42.144Z,1.82
2019-05-14T16:57:44.865Z,2.70
2019-05-14T17:02:48.451Z,2.20
2019-05-14T17:07:51.502Z,2.50
2019-05-14T17:12:57.680Z,2.47
2019-05-14T17:17:59.974Z,2.45
2019-05-14T17:23:03.154Z,2.90
2019-05-14T17:28:08.496Z,3.15
2019-05-14T17:33:11.203Z,2.67
2019-05-14T17:38:15.623Z,5.08
2019-05-14T17:43:20.152Z,4.17
2019-05-14T17:48:23.739Z,4.03
2019-05-14T17:53:29.026Z,4.20
2019-05-14T17:58:31.939Z,3.72
2019-05-14T18:03:34.980Z,3.87
2019-05-14T18:08:38.060Z,3.95
2019-05-14T18:13:41.066Z,3.23
2019-05-14T18:18:44.269Z,4.03
2019-05-14T18:23:49.240Z,3.87
2019-05-14T18:28:52.118Z,3.85
2019-05-14T18:33:55.208Z,3.30
2019-05-14T18:38:58.677Z,2.60
2019-05-14T18:44:01.910Z,2.72
2019-05-14T18:49:04.899Z,2.90
2019-05-14T18:54:08.155Z,2.80
2019-05-14T18:59:11.165Z,3.77
2019-05-14T19:04:14.170Z,3.05
2019-05-14T19:09:18.621Z,2.62
2019-05-14T19:14:21.951Z,2.87
2019-05-14T19:19:25.006Z,3.87
2019-05-14T19:24:28.683Z,2.92
2019-05-14T19:29:32.195Z,2.55
2019-05-14T19:34:35.300Z,2.12
2019-05-14T19:39:38.712Z,2.20
2019-05-14T19:44:41.885Z,2.98
2019-05-14T19:49:45.198Z,2.58
2019-05-14T19:54:48.925Z,1.90
2019-05-14T19:59:52.168Z,2.20
2019-05-14T20:04:55.314Z,2.45
2019-05-14T20:09:58.819Z,2.40
2019-05-14T20:15:03.771Z,2.58
2019-05-14T20:20:08.912Z,2.70
2019-05-14T20:25:12.464Z,3.10
2019-05-14T20:30:18.813Z,2.52
2019-05-14T20:35:33.617Z,2.85
2019-05-14T20:45:31.797Z,2.50
2019-05-14T20:50:35.164Z,2.45
2019-05-14T20:55:38.818Z,3.08
2019-05-14T21:00:42.071Z,3.20
2019-05-14T21:05:45.119Z,2.45
2019-05-14T21:10:49.458Z,2.35
2019-05-14T21:15:52.775Z,2.42
2019-05-14T21:20:55.763Z,2.15
2019-05-14T21:25:58.798Z,2.02
2019-05-14T21:31:02.201Z,2.10
2019-05-14T21:36:05.262Z,1.87
2019-05-14T21:41:08.219Z,2.62
2019-05-14T21:46:12.431Z,2.42
2019-05-14T21:51:15.402Z,2.20
2019-05-14T21:56:21.712Z,2.12
2019-05-14T22:01:23.620Z,2.67
2019-05-14T22:06:28.959Z,2.22
2019-05-14T22:11:31.780Z,2.87
2019-05-14T22:16:34.781Z,2.17
2019-05-14T22:21:38.619Z,1.75
2019-05-14T22:26:42.728Z,2.25
2019-05-14T22:31:45.739Z,1.70
2019-05-14T22:36:48.657Z,2.45
2019-05-14T22:41:51.680Z,2.47
2019-05-14T22:46:54.695Z,1.65
2019-05-14T22:51:58.833Z,1.47
2019-05-14T22:57:03.355Z,1.67
2019-05-14T23:02:11.003Z,1.90
2019-05-14T23:07:11.243Z,1.62
2019-05-14T23:12:14.220Z,1.57
2019-05-14T23:17:19.572Z,2.00
2019-05-14T23:22:22.153Z,1.77
2019-05-14T23:27:25.208Z,1.50
2019-05-14T23:32:29.379Z,2.20
2019-05-14T23:37:32.423Z,2.33
2019-05-14T23:42:35.453Z,1.55
2019-05-14T23:47:38.605Z,1.55
2019-05-14T23:52:41.650Z,1.55
2019-05-14T23:57:45.110Z,1.63
